createdAt,value
2018-12-10T00:00:25.409Z,6.20
2018-12-10T00:05:54.599Z,6.30
2018-12-10T00:08:22.129Z,6.30
2018-12-10T00:10:50.465Z,6.30
2018-12-10T00:13:18.133Z,6.20
2018-12-10T00:15:45.957Z,6.20
2018-12-10T00:18:13.471Z,6.30
2018-12-10T00:20:41.157Z,6.30
2018-12-10T00:23:08.687Z,6.20
2018-12-10T00:25:36.825Z,6.30
2018-12-10T00:28:04.383Z,6.30
2018-12-10T00:30:32.369Z,6.30
2018-12-10T00:32:59.899Z,6.30
2018-12-10T00:35:28.103Z,6.30
2018-12-10T00:37:55.639Z,6.30
2018-12-10T00:40:23.458Z,6.30
2018-12-10T00:42:51.245Z,6.40
2018-12-10T00:45:19.021Z,6.40
2018-12-10T00:47:46.625Z,6.40
2018-12-10T00:50:14.521Z,6.40
2018-12-10T00:52:42.047Z,6.40
2018-12-10T00:55:10.059Z,6.40
2018-12-10T00:57:37.603Z,6.30
2018-12-10T01:00:05.991Z,6.20
2018-12-10T01:02:33.522Z,6.20
2018-12-10T01:05:01.672Z,6.20
2018-12-10T01:07:29.219Z,6.20
2018-12-10T01:09:57.319Z,6.10
2018-12-10T01:12:24.992Z,6.10
2018-12-10T01:14:53.000Z,6.10
2018-12-10T01:17:20.526Z,6.10
2018-12-10T01:19:48.328Z,6.10
2018-12-10T01:22:15.861Z,6.10
2018-12-10T01:24:43.644Z,6.10
2018-12-10T01:27:11.633Z,6.10
2018-12-10T01:29:39.369Z,6.10
2018-12-10T01:32:07.172Z,6.10
2018-12-10T01:34:35.095Z,6.00
2018-12-10T01:37:02.630Z,6.00
2018-12-10T01:39:30.420Z,6.00
2018-12-10T01:41:57.946Z,6.00
2018-12-10T01:44:25.912Z,6.00
2018-12-10T01:46:53.610Z,6.00
2018-12-10T01:49:21.140Z,6.00
2018-12-10T01:51:49.136Z,6.00
2018-12-10T01:54:16.738Z,6.10
2018-12-10T01:56:44.460Z,6.10
2018-12-10T01:59:11.998Z,6.10
2018-12-10T02:01:39.771Z,6.10
2018-12-10T02:04:07.634Z,6.10
2018-12-10T02:06:35.502Z,6.10
2018-12-10T02:09:04.288Z,6.10
2018-12-10T02:11:32.238Z,6.10
2018-12-10T02:13:59.882Z,6.10
2018-12-10T02:16:27.542Z,6.10
2018-12-10T02:18:55.091Z,6.10
2018-12-10T02:21:23.332Z,6.10
2018-12-10T02:23:50.858Z,6.00
2018-12-10T02:26:18.488Z,6.00
2018-12-10T02:28:51.686Z,6.10
2018-12-10T02:31:19.343Z,6.00
2018-12-10T02:33:46.872Z,6.00
2018-12-10T02:36:14.498Z,6.00
2018-12-10T02:38:42.031Z,6.00
2018-12-10T02:41:10.065Z,6.10
2018-12-10T02:43:37.587Z,6.10
2018-12-10T02:46:05.243Z,6.10
2018-12-10T02:48:32.843Z,6.10
2018-12-10T02:51:01.013Z,6.00
2018-12-10T02:53:28.649Z,6.10
2018-12-10T02:55:56.825Z,6.10
2018-12-10T02:58:24.610Z,6.10
2018-12-10T03:00:52.886Z,6.10
2018-12-10T03:03:20.424Z,6.10
2018-12-10T03:05:48.599Z,6.00
2018-12-10T03:08:16.117Z,6.00
2018-12-10T03:10:44.529Z,6.00
2018-12-10T03:13:12.153Z,6.00
2018-12-10T03:15:39.958Z,6.00
2018-12-10T03:18:07.476Z,6.00
2018-12-10T03:20:35.408Z,5.90
2018-12-10T03:23:02.936Z,5.90
2018-12-10T03:25:30.577Z,5.90
2018-12-10T03:27:58.128Z,5.90
2018-12-10T03:30:25.864Z,5.90
2018-12-10T03:32:53.480Z,5.90
2018-12-10T03:35:21.197Z,5.90
2018-12-10T03:37:48.737Z,5.90
2018-12-10T03:40:16.986Z,5.80
2018-12-10T03:42:44.528Z,5.80
2018-12-10T03:45:12.258Z,5.80
2018-12-10T03:47:39.792Z,5.80
2018-12-10T03:50:08.547Z,5.80
2018-12-10T03:52:36.081Z,5.80
2018-12-10T03:55:04.308Z,5.90
2018-12-10T03:57:31.855Z,5.90
2018-12-10T03:59:59.646Z,5.90
2018-12-10T04:02:27.303Z,5.90
2018-12-10T04:04:55.289Z,5.90
2018-12-10T04:07:23.020Z,5.90
2018-12-10T04:09:50.573Z,5.90
2018-12-10T04:12:18.355Z,5.90
2018-12-10T04:14:45.982Z,5.90
2018-12-10T04:17:14.088Z,5.90
2018-12-10T04:19:41.620Z,5.90
2018-12-10T04:22:09.607Z,5.90
2018-12-10T04:24:37.157Z,5.90
2018-12-10T04:27:04.930Z,5.90
2018-12-10T04:29:32.454Z,5.80
2018-12-10T04:32:00.240Z,5.80
2018-12-10T04:34:27.847Z,5.80
2018-12-10T04:36:55.987Z,5.80
2018-12-10T04:39:23.540Z,5.70
2018-12-10T04:41:51.541Z,5.70
2018-12-10T04:44:19.067Z,5.80
2018-12-10T04:46:46.990Z,5.70
2018-12-10T04:49:14.516Z,5.80
2018-12-10T04:51:42.391Z,5.80
2018-12-10T04:54:09.927Z,5.80
2018-12-10T04:56:37.697Z,5.80
2018-12-10T04:59:05.235Z,5.80
2018-12-10T05:01:33.027Z,5.80
2018-12-10T05:04:00.547Z,5.80
2018-12-10T05:06:28.957Z,5.70
2018-12-10T05:08:56.488Z,5.70
2018-12-10T05:11:24.519Z,5.70
2018-12-10T05:13:52.402Z,5.70
2018-12-10T05:16:24.295Z,5.70
2018-12-10T05:18:51.824Z,5.70
2018-12-10T05:21:19.646Z,5.70
2018-12-10T05:23:47.668Z,5.70
2018-12-10T05:26:16.074Z,5.60
2018-12-10T05:28:43.587Z,5.60
2018-12-10T05:31:12.342Z,5.60
2018-12-10T05:33:40.065Z,5.60
2018-12-10T05:36:08.562Z,5.60
2018-12-10T05:38:36.172Z,5.50
2018-12-10T05:41:04.082Z,5.50
2018-12-10T05:43:31.605Z,5.50
2018-12-10T05:45:59.234Z,5.50
2018-12-10T05:48:26.748Z,5.50
2018-12-10T05:50:55.069Z,5.50
2018-12-10T05:53:22.693Z,5.50
2018-12-10T05:55:52.396Z,5.40
2018-12-10T05:58:19.953Z,5.40
2018-12-10T06:00:47.868Z,5.40
2018-12-10T06:03:15.510Z,5.30
2018-12-10T06:05:43.818Z,5.30
2018-12-10T06:08:11.343Z,5.30
2018-12-10T06:10:39.238Z,5.20
2018-12-10T06:13:06.775Z,5.20
2018-12-10T06:15:34.562Z,5.20
2018-12-10T06:18:02.100Z,5.30
2018-12-10T06:20:29.870Z,5.30
2018-12-10T06:22:57.419Z,5.30
2018-12-10T06:25:25.370Z,5.20
2018-12-10T06:27:52.904Z,5.20
2018-12-10T06:30:21.152Z,5.20
2018-12-10T06:32:48.665Z,5.10
2018-12-10T06:35:16.197Z,5.20
2018-12-10T06:37:43.734Z,5.20
2018-12-10T06:40:11.568Z,5.10
2018-12-10T06:42:39.107Z,5.10
2018-12-10T06:45:07.107Z,5.10
2018-12-10T06:47:35.468Z,5.10
2018-12-10T06:50:04.489Z,5.10
2018-12-10T06:52:32.019Z,5.20
2018-12-10T06:55:01.525Z,5.20
2018-12-10T06:57:29.333Z,5.10
2018-12-10T06:59:57.363Z,5.20
2018-12-10T07:02:24.897Z,5.20
2018-12-10T07:04:52.706Z,5.20
2018-12-10T07:07:20.873Z,5.20
2018-12-10T07:09:48.840Z,5.10
2018-12-10T07:12:16.363Z,5.10
2018-12-10T07:14:43.897Z,5.10
2018-12-10T07:17:11.901Z,5.10
2018-12-10T07:19:40.339Z,5.10
2018-12-10T07:22:07.856Z,5.10
2018-12-10T07:24:35.627Z,5.10
2018-12-10T07:27:03.513Z,5.10
2018-12-10T07:29:31.056Z,5.20
2018-12-10T07:31:58.991Z,5.20
2018-12-10T07:34:26.527Z,5.20
2018-12-10T07:36:54.777Z,5.20
2018-12-10T07:39:22.311Z,5.20
2018-12-10T07:41:50.501Z,5.20
2018-12-10T07:44:18.400Z,5.20
2018-12-10T07:46:46.319Z,5.20
2018-12-10T07:49:14.298Z,5.30
2018-12-10T07:51:41.835Z,5.30
2018-12-10T07:54:09.634Z,5.40
2018-12-10T07:56:37.373Z,5.40
2018-12-10T07:59:05.163Z,5.40
2018-12-10T08:01:32.910Z,5.50
2018-12-10T08:04:01.103Z,5.50
2018-12-10T08:06:29.117Z,5.50
2018-12-10T08:08:56.966Z,5.50
2018-12-10T08:11:24.521Z,5.50
2018-12-10T08:13:52.365Z,5.50
2018-12-10T08:16:19.895Z,5.60
2018-12-10T08:18:47.433Z,5.60
2018-12-10T08:21:15.538Z,5.60
2018-12-10T08:23:43.066Z,5.60
2018-12-10T08:26:10.815Z,5.60
2018-12-10T08:28:38.343Z,5.60
2018-12-10T08:31:06.201Z,5.50
2018-12-10T08:33:33.737Z,5.50
2018-12-10T08:36:01.507Z,5.40
2018-12-10T08:38:29.048Z,5.40
2018-12-10T08:40:57.035Z,5.40
2018-12-10T08:43:24.568Z,5.30
2018-12-10T08:45:52.568Z,5.40
2018-12-10T08:48:20.123Z,5.30
2018-12-10T08:50:47.893Z,5.40
2018-12-10T08:53:15.547Z,5.40
2018-12-10T08:55:43.077Z,5.50
2018-12-10T08:58:10.879Z,5.40
2018-12-10T09:00:38.408Z,5.50
2018-12-10T09:03:06.613Z,5.40
2018-12-10T09:05:34.662Z,5.50
2018-12-10T09:08:02.500Z,5.50
2018-12-10T09:10:31.375Z,5.50
2018-12-10T09:12:59.307Z,5.50
2018-12-10T09:15:27.155Z,5.50
2018-12-10T09:17:54.678Z,5.50
2018-12-10T09:20:22.916Z,5.50
2018-12-10T09:22:50.437Z,5.50
2018-12-10T09:25:18.603Z,5.60
2018-12-10T09:27:46.147Z,5.60
2018-12-10T09:30:14.107Z,5.60
2018-12-10T09:32:41.639Z,5.80
2018-12-10T09:35:09.487Z,5.80
2018-12-10T09:37:37.022Z,5.90
2018-12-10T09:40:06.963Z,5.90
2018-12-10T09:42:34.488Z,5.90
2018-12-10T09:45:02.803Z,5.90
2018-12-10T09:47:30.336Z,5.90
2018-12-10T09:49:58.088Z,5.90
2018-12-10T09:52:25.625Z,5.90
2018-12-10T09:54:53.201Z,5.90
2018-12-10T09:57:21.524Z,5.90
2018-12-10T09:59:49.055Z,5.90
2018-12-10T10:02:17.049Z,5.90
2018-12-10T10:04:44.583Z,5.90
2018-12-10T10:07:13.191Z,5.90
2018-12-10T10:09:40.721Z,5.90
2018-12-10T10:12:08.719Z,6.00
2018-12-10T10:14:36.581Z,6.00
2018-12-10T10:17:04.187Z,6.10
2018-12-10T10:19:31.903Z,6.10
2018-12-10T10:21:59.425Z,6.20
2018-12-10T10:24:27.106Z,6.30
2018-12-10T10:26:54.904Z,6.30
2018-12-10T10:29:22.443Z,6.30
2018-12-10T10:31:50.417Z,6.20
2018-12-10T10:34:17.951Z,6.20
2018-12-10T10:36:46.017Z,6.20
2018-12-10T10:39:13.771Z,6.20
2018-12-10T10:41:41.754Z,6.20
2018-12-10T10:44:09.289Z,6.20
2018-12-10T10:46:37.306Z,6.20
2018-12-10T10:49:04.922Z,6.20
2018-12-10T10:51:32.647Z,6.20
2018-12-10T10:54:00.165Z,6.20
2018-12-10T10:56:28.451Z,6.20
2018-12-10T10:58:56.023Z,6.30
2018-12-10T11:01:25.916Z,6.50
2018-12-10T11:03:53.521Z,6.60
2018-12-10T11:06:22.083Z,6.70
2018-12-10T11:08:49.623Z,6.70
2018-12-10T11:11:17.419Z,6.70
2018-12-10T11:13:45.293Z,6.60
2018-12-10T11:16:13.163Z,6.50
2018-12-10T11:18:40.777Z,6.50
2018-12-10T11:21:08.688Z,6.30
2018-12-10T11:23:36.220Z,6.20
2018-12-10T11:26:04.209Z,6.10
2018-12-10T11:28:31.749Z,6.10
2018-12-10T11:30:59.543Z,6.10
2018-12-10T11:33:27.250Z,6.20
2018-12-10T11:35:55.002Z,6.30
2018-12-10T11:38:22.683Z,6.40
2018-12-10T11:40:50.379Z,6.40
2018-12-10T11:43:18.247Z,6.40
2018-12-10T11:45:45.779Z,6.40
2018-12-10T11:48:13.843Z,6.50
2018-12-10T11:50:41.538Z,6.50
2018-12-10T11:53:09.079Z,6.50
2018-12-10T11:55:36.630Z,6.50
2018-12-10T11:58:04.731Z,6.50
2018-12-10T12:00:32.262Z,6.50
2018-12-10T12:03:00.273Z,6.50
2018-12-10T12:05:27.809Z,6.50
2018-12-10T12:07:55.956Z,6.40
2018-12-10T12:10:23.487Z,6.50
2018-12-10T12:12:51.314Z,6.40
2018-12-10T12:15:18.854Z,6.40
2018-12-10T12:17:46.854Z,6.40
2018-12-10T12:20:14.380Z,6.30
2018-12-10T12:22:42.300Z,6.30
2018-12-10T12:25:10.137Z,6.30
2018-12-10T12:27:38.103Z,6.30
2018-12-10T12:30:07.195Z,6.30
2018-12-10T12:32:35.074Z,6.30
2018-12-10T12:35:02.607Z,6.20
2018-12-10T12:37:30.973Z,6.30
2018-12-10T12:39:58.507Z,6.30
2018-12-10T12:42:26.336Z,6.30
2018-12-10T12:44:53.881Z,6.40
2018-12-10T12:47:21.670Z,6.40
2018-12-10T12:49:49.290Z,6.40
2018-12-10T12:52:17.187Z,6.30
2018-12-10T12:54:44.917Z,6.20
2018-12-10T12:57:13.330Z,6.30
2018-12-10T12:59:40.850Z,6.20
2018-12-10T13:02:08.681Z,6.30
2018-12-10T13:04:36.279Z,6.30
2018-12-10T13:07:04.781Z,6.40
2018-12-10T13:09:33.237Z,6.40
2018-12-10T13:12:01.190Z,6.30
2018-12-10T13:14:28.795Z,6.30
2018-12-10T13:16:56.941Z,6.30
2018-12-10T13:19:24.469Z,6.30
2018-12-10T13:21:52.119Z,6.20
2018-12-10T13:24:19.661Z,6.30
2018-12-10T13:26:47.355Z,6.30
2018-12-10T13:29:15.155Z,6.30
2018-12-10T13:31:43.409Z,6.30
2018-12-10T13:34:10.975Z,6.30
2018-12-10T13:36:39.463Z,6.40
2018-12-10T13:39:07.049Z,6.40
2018-12-10T13:41:34.814Z,6.40
2018-12-10T13:44:02.344Z,6.40
2018-12-10T13:46:30.036Z,6.40
2018-12-10T13:48:57.575Z,6.40
2018-12-10T13:51:25.622Z,6.40
2018-12-10T13:53:53.159Z,6.40
2018-12-10T13:56:21.205Z,6.40
2018-12-10T13:58:48.743Z,6.40
2018-12-10T14:01:16.455Z,6.40
2018-12-10T14:03:44.759Z,6.40
2018-12-10T14:06:13.030Z,6.40
2018-12-10T14:08:40.618Z,6.40
2018-12-10T14:11:08.589Z,6.40
2018-12-10T14:13:36.155Z,6.40
2018-12-10T14:16:04.003Z,6.30
2018-12-10T14:18:31.549Z,6.30
2018-12-10T14:20:59.578Z,6.30
2018-12-10T14:23:27.125Z,6.30
2018-12-10T14:25:54.874Z,6.30
2018-12-10T14:28:22.428Z,6.20
2018-12-10T14:30:50.346Z,6.30
2018-12-10T14:33:17.939Z,6.30
2018-12-10T14:35:45.907Z,6.20
2018-12-10T14:38:13.597Z,6.20
2018-12-10T14:40:41.235Z,6.20
2018-12-10T14:43:09.547Z,6.20
2018-12-10T14:45:37.202Z,6.10
2018-12-10T14:48:04.772Z,6.10
2018-12-10T14:50:32.723Z,6.10
2018-12-10T14:53:00.266Z,6.10
2018-12-10T14:55:27.782Z,6.00
2018-12-10T14:57:55.501Z,5.90
2018-12-10T15:00:23.756Z,5.80
2018-12-10T15:02:52.065Z,5.70
2018-12-10T15:05:19.692Z,5.70
2018-12-10T15:07:48.142Z,5.60
2018-12-10T15:10:15.786Z,5.60
2018-12-10T15:12:43.559Z,5.60
2018-12-10T15:15:11.090Z,5.50
2018-12-10T15:17:38.869Z,5.40
2018-12-10T15:20:08.584Z,5.40
2018-12-10T15:22:36.526Z,5.40
2018-12-10T15:25:04.704Z,5.40
2018-12-10T15:27:32.493Z,5.50
2018-12-10T15:30:00.032Z,5.50
2018-12-10T15:32:27.909Z,5.50
2018-12-10T15:34:55.432Z,5.50
2018-12-10T15:37:23.216Z,5.60
2018-12-10T15:39:50.849Z,5.60
2018-12-10T15:42:18.923Z,5.60
2018-12-10T15:44:46.840Z,5.60
2018-12-10T15:47:14.446Z,5.60
2018-12-10T15:49:42.163Z,5.70
2018-12-10T15:52:10.012Z,5.70
2018-12-10T15:54:37.551Z,5.70
2018-12-10T15:57:05.356Z,5.70
2018-12-10T15:59:32.894Z,5.70
2018-12-10T16:02:00.903Z,5.70
2018-12-10T16:04:30.435Z,5.70
2018-12-10T16:06:58.866Z,5.70
2018-12-10T16:09:26.400Z,5.70
2018-12-10T16:11:54.196Z,5.60
2018-12-10T16:14:21.747Z,5.60
2018-12-10T16:16:49.758Z,5.60
2018-12-10T16:19:17.292Z,5.50
2018-12-10T16:21:45.656Z,5.50
2018-12-10T16:24:13.194Z,5.40
2018-12-10T16:26:40.726Z,5.40
2018-12-10T16:29:08.265Z,5.30
2018-12-10T16:31:35.790Z,5.30
2018-12-10T16:34:03.602Z,5.30
2018-12-10T16:36:31.134Z,5.30
2018-12-10T16:38:59.173Z,5.30
2018-12-10T16:41:26.745Z,5.30
2018-12-10T16:43:54.709Z,5.30
2018-12-10T16:46:22.247Z,5.30
2018-12-10T16:48:49.916Z,5.40
2018-12-10T16:51:17.444Z,5.30
2018-12-10T16:53:45.124Z,5.40
2018-12-10T16:56:13.014Z,5.40
2018-12-10T16:58:41.063Z,5.40
2018-12-10T17:01:08.588Z,5.40
2018-12-10T17:03:36.438Z,5.40
2018-12-10T17:06:04.135Z,5.40
2018-12-10T17:08:32.358Z,5.40
2018-12-10T17:10:59.896Z,5.50
2018-12-10T17:13:28.083Z,5.40
2018-12-10T17:15:55.612Z,5.50
2018-12-10T17:18:23.733Z,5.60
2018-12-10T17:20:51.262Z,5.50
2018-12-10T17:23:19.320Z,5.60
2018-12-10T17:25:46.882Z,5.60
2018-12-10T17:28:15.081Z,5.60
2018-12-10T17:30:42.612Z,5.50
2018-12-10T17:33:10.275Z,5.50
2018-12-10T17:35:37.821Z,5.50
2018-12-10T17:38:05.781Z,5.60
2018-12-10T17:40:33.319Z,5.60
2018-12-10T17:43:00.972Z,5.60
2018-12-10T17:45:28.488Z,5.60
2018-12-10T17:47:56.148Z,5.60
2018-12-10T17:50:23.683Z,5.60
2018-12-10T17:52:51.391Z,5.60
2018-12-10T17:55:18.914Z,5.50
2018-12-10T17:57:47.025Z,5.50
2018-12-10T18:00:14.745Z,5.50
2018-12-10T18:02:42.514Z,5.40
2018-12-10T18:05:10.176Z,5.40
2018-12-10T18:07:38.385Z,5.40
2018-12-10T18:10:06.791Z,5.30
2018-12-10T18:12:34.606Z,5.30
2018-12-10T18:15:02.154Z,5.30
2018-12-10T18:17:30.573Z,5.30
2018-12-10T18:19:58.132Z,5.30
2018-12-10T18:22:31.836Z,5.30
2018-12-10T18:24:59.367Z,5.30
2018-12-10T18:27:27.026Z,5.30
2018-12-10T18:29:54.571Z,5.30
2018-12-10T18:32:22.423Z,5.20
2018-12-10T18:34:49.994Z,5.20
2018-12-10T18:37:17.965Z,5.10
2018-12-10T18:39:45.610Z,5.00
2018-12-10T18:42:13.151Z,5.00
2018-12-10T18:44:40.825Z,4.90
2018-12-10T18:47:08.365Z,4.90
2018-12-10T18:49:36.301Z,4.90
2018-12-10T18:52:03.920Z,4.80
2018-12-10T18:54:33.065Z,4.80
2018-12-10T18:57:00.591Z,4.80
2018-12-10T18:59:28.420Z,4.80
2018-12-10T19:01:55.972Z,4.80
2018-12-10T19:04:23.946Z,4.80
2018-12-10T19:06:52.144Z,4.80
2018-12-10T19:09:20.196Z,4.80
2018-12-10T19:11:47.905Z,4.80
2018-12-10T19:14:15.802Z,4.80
2018-12-10T19:16:43.509Z,4.80
2018-12-10T19:19:11.194Z,4.80
2018-12-10T19:21:38.804Z,4.80
2018-12-10T19:24:06.875Z,4.90
2018-12-10T19:26:34.439Z,4.90
2018-12-10T19:29:02.767Z,4.90
2018-12-10T19:31:30.516Z,4.90
2018-12-10T19:34:03.465Z,4.90
2018-12-10T19:36:27.900Z,4.90
2018-12-10T19:38:56.118Z,4.90
2018-12-10T19:41:23.661Z,4.90
2018-12-10T19:43:51.632Z,4.90
2018-12-10T19:46:19.169Z,4.90
2018-12-10T19:48:46.957Z,4.90
2018-12-10T19:51:17.379Z,5.00
2018-12-10T19:53:45.383Z,5.00
2018-12-10T19:56:12.947Z,4.90
2018-12-10T19:58:40.900Z,4.90
2018-12-10T20:01:08.548Z,4.90
2018-12-10T20:03:36.234Z,4.90
2018-12-10T20:06:09.474Z,4.90
2018-12-10T20:08:38.082Z,4.90
2018-12-10T20:11:05.644Z,4.90
2018-12-10T20:13:33.622Z,4.80
2018-12-10T20:16:01.168Z,4.80
2018-12-10T20:18:28.839Z,4.70
2018-12-10T20:20:56.377Z,4.60
2018-12-10T20:23:24.060Z,4.60
2018-12-10T20:25:51.858Z,4.60
2018-12-10T20:28:20.014Z,4.60
2018-12-10T20:30:49.171Z,4.60
2018-12-10T20:33:17.194Z,4.60
2018-12-10T20:35:44.778Z,4.60
2018-12-10T20:38:13.744Z,4.60
2018-12-10T20:40:41.296Z,4.60
2018-12-10T20:43:09.470Z,4.60
2018-12-10T20:45:37.018Z,4.60
2018-12-10T20:48:04.970Z,4.60
2018-12-10T20:50:32.606Z,4.60
2018-12-10T20:53:01.072Z,4.60
2018-12-10T20:55:28.762Z,4.60
2018-12-10T20:57:57.472Z,4.70
2018-12-10T21:00:25.250Z,4.70
2018-12-10T21:02:52.949Z,4.60
2018-12-10T21:05:20.866Z,4.60
2018-12-10T21:07:48.860Z,4.60
2018-12-10T21:10:17.773Z,4.60
2018-12-10T21:12:45.335Z,4.70
2018-12-10T21:15:13.338Z,4.70
2018-12-10T21:17:40.878Z,4.70
2018-12-10T21:20:08.683Z,4.70
2018-12-10T21:22:36.402Z,4.70
2018-12-10T21:25:04.474Z,4.70
2018-12-10T21:27:32.013Z,4.70
2018-12-10T21:30:00.173Z,4.70
2018-12-10T21:32:27.802Z,4.70
2018-12-10T21:34:55.648Z,4.80
2018-12-10T21:37:23.188Z,4.70
2018-12-10T21:39:50.897Z,4.70
2018-12-10T21:42:18.487Z,4.70
2018-12-10T21:44:46.581Z,4.70
2018-12-10T21:47:14.175Z,4.70
2018-12-10T21:49:42.145Z,4.60
2018-12-10T21:52:10.012Z,4.70
2018-12-10T21:54:37.553Z,4.70
2018-12-10T21:57:05.358Z,4.70
2018-12-10T21:59:33.194Z,4.60
2018-12-10T22:02:00.744Z,4.70
2018-12-10T22:04:28.543Z,4.70
2018-12-10T22:06:56.724Z,4.70
2018-12-10T22:09:24.859Z,4.70
2018-12-10T22:11:52.734Z,4.80
2018-12-10T22:14:20.324Z,4.80
2018-12-10T22:16:48.058Z,4.80
2018-12-10T22:19:15.811Z,4.80
2018-12-10T22:21:44.924Z,4.80
2018-12-10T22:24:12.456Z,4.80
2018-12-10T22:26:40.465Z,4.80
2018-12-10T22:29:08.194Z,4.80
2018-12-10T22:31:35.743Z,4.70
2018-12-10T22:34:04.227Z,4.80
2018-12-10T22:36:31.796Z,4.80
2018-12-10T22:38:59.795Z,4.70
2018-12-10T22:41:27.347Z,4.70
2018-12-10T22:43:55.310Z,4.80
2018-12-10T22:46:22.845Z,4.80
2018-12-10T22:48:50.660Z,4.80
2018-12-10T22:51:18.272Z,4.80
2018-12-10T22:53:46.161Z,4.80
2018-12-10T22:56:13.712Z,4.80
2018-12-10T22:58:44.766Z,4.80
2018-12-10T23:01:12.594Z,4.80
2018-12-10T23:03:40.720Z,4.80
2018-12-10T23:06:08.301Z,4.80
2018-12-10T23:08:36.639Z,4.80
2018-12-10T23:11:04.168Z,4.80
2018-12-10T23:13:31.966Z,4.70
2018-12-10T23:15:59.798Z,4.70
2018-12-10T23:18:27.518Z,4.70
2018-12-10T23:20:55.050Z,4.70
2018-12-10T23:23:23.045Z,4.70
2018-12-10T23:25:50.570Z,4.70
2018-12-10T23:28:18.340Z,4.60
2018-12-10T23:30:45.969Z,4.60
2018-12-10T23:33:13.680Z,4.60
2018-12-10T23:35:41.210Z,4.60
2018-12-10T23:38:08.988Z,4.60
2018-12-10T23:40:36.522Z,4.60
2018-12-10T23:43:10.457Z,4.50
2018-12-10T23:45:37.982Z,4.50
2018-12-10T23:48:05.520Z,4.40
2018-12-10T23:50:33.242Z,4.30
2018-12-10T23:53:00.910Z,4.30
2018-12-10T23:55:28.570Z,4.30
2018-12-10T23:57:56.224Z,4.40
